Погода Аникунсна неделю

Гояс, Бразилия

19 - 25 июля
  • 19июля
    Сегодня
    +15°
    +31°
    Ясно и безоблачно
    ВремяПогодаТемператураВлажностьДавлениеВетер, м/сВероятность осадков
    00:00Ясно и безоблачно+19°C48 %691 мм2.8 м/с5 %
    03:00Ясно и безоблачно+17°C53 %690 мм2.9 м/с5 %
    06:00Ясно и безоблачно+15°C57 %690 мм2.7 м/с5 %
    09:00Ясно и безоблачно+21°C44 %693 мм3.0 м/с5 %
    12:00Ясно и безоблачно+28°C28 %694 мм3.1 м/с5 %
    15:00Ясно и безоблачно+30°C24 %692 мм2.0 м/с5 %
    18:00Ясно и безоблачно+27°C33 %692 мм2.3 м/с5 %
    21:00Ясно и безоблачно+23°C39 %692 мм2.6 м/с5 %
  • 20июля
    Суббота
    +15°
    +31°
    Ясно и безоблачно
    ВремяПогодаТемператураВлажностьДавлениеВетер, м/сВероятность осадков
    00:00Ясно и безоблачно+19°C44 %692 мм2.7 м/с5 %
    03:00Ясно и безоблачно+17°C51 %690 мм2.7 м/с5 %
    06:00Ясно и безоблачно+16°C50 %690 мм3.1 м/с5 %
    09:00Ясно и безоблачно+21°C42 %693 мм2.9 м/с5 %
    12:00Ясно и безоблачно+28°C26 %693 мм3.3 м/с5 %
    15:00Ясно и безоблачно+30°C22 %691 мм1.9 м/с5 %
    18:00Ясно и безоблачно+26°C31 %690 мм2.3 м/с5 %
    21:00Ясно и безоблачно+22°C34 %690 мм2.6 м/с5 %
  • 21июля
    Воскресенье
    +16°
    +31°
    Ясно и безоблачно
    ВремяПогодаТемператураВлажностьДавлениеВетер, м/сВероятность осадков
    00:00Ясно и безоблачно+20°C40 %690 мм2.8 м/с5 %
    03:00Ясно и безоблачно+18°C49 %689 мм3.2 м/с5 %
    06:00Ясно и безоблачно+16°C55 %689 мм2.9 м/с5 %
    09:00Ясно и безоблачно+22°C42 %692 мм3.3 м/с5 %
    12:00Ясно и безоблачно+28°C27 %692 мм3.2 м/с5 %
    15:00Ясно и безоблачно+31°C24 %690 мм1.6 м/с5 %
    18:00Ясно и безоблачно+27°C31 %690 мм2.0 м/с5 %
    21:00Ясно и безоблачно+22°C33 %690 мм2.4 м/с5 %
  • 22июля
    Понедельник
    +16°
    +31°
    Ясно и безоблачно
    ВремяПогодаТемператураВлажностьДавлениеВетер, м/сВероятность осадков
    00:00Ясно и безоблачно+20°C43 %690 мм3.1 м/с5 %
    03:00Ясно и безоблачно+18°C49 %690 мм3.2 м/с5 %
    06:00Ясно и безоблачно+17°C53 %690 мм2.9 м/с5 %
    09:00Ясно и безоблачно+22°C40 %693 мм2.7 м/с5 %
    12:00Ясно и безоблачно+28°C26 %693 мм2.7 м/с5 %
    15:00Ясно и безоблачно+30°C23 %691 мм2.6 м/с5 %
    18:00Ясно и безоблачно+26°C33 %691 мм2.3 м/с5 %
    21:00Ясно и безоблачно+23°C35 %691 мм3.3 м/с5 %
  • 23июля
    Вторник
    +17°
    +31°
    Ясно и безоблачно
    ВремяПогодаТемператураВлажностьДавлениеВетер, м/сВероятность осадков
    00:00Ясно и безоблачно+20°C45 %691 мм3.0 м/с5 %
    03:00Ясно и безоблачно+18°C54 %690 мм3.1 м/с5 %
    06:00Ясно и безоблачно+17°C61 %691 мм3.1 м/с5 %
    09:00Ясно и безоблачно+23°C43 %693 мм3.1 м/с5 %
    12:00Ясно и безоблачно+28°C28 %693 мм3.1 м/с5 %
    15:00Ясно и безоблачно+31°C23 %692 мм1.8 м/с5 %
    18:00Ясно и безоблачно+27°C32 %691 мм2.1 м/с5 %
    21:00Ясно и безоблачно+23°C36 %692 мм3.0 м/с5 %
Мы используем cookies
Соглашаюсь